sensor_id;sensor_type;location;lat;lon;timestamp;temperature;humidity
6270;DHT22;3168;51.684;6.954;2023-06-22T00:02:11;20.10;1.00
6270;DHT22;3168;51.684;6.954;2023-06-22T00:04:37;20.00;1.00
6270;DHT22;3168;51.684;6.954;2023-06-22T00:07:03;20.00;1.00
6270;DHT22;3168;51.684;6.954;2023-06-22T00:09:30;20.10;1.00
6270;DHT22;3168;51.684;6.954;2023-06-22T00:11:55;20.00;1.00
6270;DHT22;3168;51.684;6.954;2023-06-22T00:14:21;20.00;1.00
6270;DHT22;3168;51.684;6.954;2023-06-22T00:16:46;20.00;1.00
6270;DHT22;3168;51.684;6.954;2023-06-22T00:19:12;20.10;1.00
6270;DHT22;3168;51.684;6.954;2023-06-22T00:21:38;20.20;1.00
6270;DHT22;3168;51.684;6.954;2023-06-22T00:24:04;20.10;1.00
6270;DHT22;3168;51.684;6.954;2023-06-22T00:26:30;20.30;1.00
6270;DHT22;3168;51.684;6.954;2023-06-22T00:28:56;20.50;1.00
6270;DHT22;3168;51.684;6.954;2023-06-22T00:31:22;20.40;1.00
6270;DHT22;3168;51.684;6.954;2023-06-22T00:33:47;20.30;1.00
6270;DHT22;3168;51.684;6.954;2023-06-22T00:36:13;20.30;1.00
6270;DHT22;3168;51.684;6.954;2023-06-22T00:38:39;20.20;1.00
6270;DHT22;3168;51.684;6.954;2023-06-22T00:41:05;20.10;1.00
6270;DHT22;3168;51.684;6.954;2023-06-22T00:43:31;20.10;1.00
6270;DHT22;3168;51.684;6.954;2023-06-22T00:45:56;20.20;1.00
6270;DHT22;3168;51.684;6.954;2023-06-22T00:48:22;20.10;1.00
6270;DHT22;3168;51.684;6.954;2023-06-22T00:50:48;20.00;1.00
6270;DHT22;3168;51.684;6.954;2023-06-22T00:53:14;20.00;1.00
6270;DHT22;3168;51.684;6.954;2023-06-22T00:55:41;19.90;1.00
6270;DHT22;3168;51.684;6.954;2023-06-22T00:58:07;20.00;1.00
6270;DHT22;3168;51.684;6.954;2023-06-22T01:00:33;19.90;1.00
6270;DHT22;3168;51.684;6.954;2023-06-22T01:02:59;19.90;1.00
6270;DHT22;3168;51.684;6.954;2023-06-22T01:05:25;20.00;1.00
6270;DHT22;3168;51.684;6.954;2023-06-22T01:08:18;20.10;1.00
6270;DHT22;3168;51.684;6.954;2023-06-22T01:10:46;20.10;1.00
6270;DHT22;3168;51.684;6.954;2023-06-22T01:13:18;20.00;1.00
6270;DHT22;3168;51.684;6.954;2023-06-22T01:15:52;19.90;1.00
6270;DHT22;3168;51.684;6.954;2023-06-22T01:18:17;19.80;1.00
6270;DHT22;3168;51.684;6.954;2023-06-22T01:20:42;19.80;1.00
6270;DHT22;3168;51.684;6.954;2023-06-22T01:23:21;19.70;1.00
6270;DHT22;3168;51.684;6.954;2023-06-22T01:25:46;19.70;1.00
6270;DHT22;3168;51.684;6.954;2023-06-22T01:30:58;19.80;1.00
6270;DHT22;3168;51.684;6.954;2023-06-22T01:33:29;19.80;1.00
6270;DHT22;3168;51.684;6.954;2023-06-22T01:35:54;19.70;1.00
6270;DHT22;3168;51.684;6.954;2023-06-22T01:38:20;19.60;1.00
6270;DHT22;3168;51.684;6.954;2023-06-22T01:40:46;19.60;1.00
6270;DHT22;3168;51.684;6.954;2023-06-22T01:43:12;19.80;1.00
6270;DHT22;3168;51.684;6.954;2023-06-22T01:45:37;19.80;1.00
6270;DHT22;3168;51.684;6.954;2023-06-22T01:48:04;19.80;1.00
6270;DHT22;3168;51.684;6.954;2023-06-22T01:50:30;19.80;1.00
6270;DHT22;3168;51.684;6.954;2023-06-22T01:52:56;19.50;1.00
6270;DHT22;3168;51.684;6.954;2023-06-22T01:55:21;19.30;1.00
6270;DHT22;3168;51.684;6.954;2023-06-22T01:57:47;19.30;1.00
6270;DHT22;3168;51.684;6.954;2023-06-22T02:00:14;19.20;1.00
6270;DHT22;3168;51.684;6.954;2023-06-22T02:02:47;19.20;1.00
6270;DHT22;3168;51.684;6.954;2023-06-22T02:05:09;19.30;1.00
6270;DHT22;3168;51.684;6.954;2023-06-22T02:07:39;19.40;1.00
6270;DHT22;3168;51.684;6.954;2023-06-22T02:10:02;19.40;1.00
6270;DHT22;3168;51.684;6.954;2023-06-22T02:12:27;19.40;1.00
6270;DHT22;3168;51.684;6.954;2023-06-22T02:14:53;19.20;1.00
6270;DHT22;3168;51.684;6.954;2023-06-22T02:17:19;19.10;1.00
6270;DHT22;3168;51.684;6.954;2023-06-22T02:19:45;19.00;1.00
6270;DHT22;3168;51.684;6.954;2023-06-22T02:22:11;19.00;1.00
6270;DHT22;3168;51.684;6.954;2023-06-22T02:24:36;19.00;1.00
6270;DHT22;3168;51.684;6.954;2023-06-22T02:27:03;19.10;1.00
6270;DHT22;3168;51.684;6.954;2023-06-22T02:29:28;19.30;1.00
6270;DHT22;3168;51.684;6.954;2023-06-22T02:31:54;19.30;1.00
6270;DHT22;3168;51.684;6.954;2023-06-22T02:34:21;19.20;1.00
6270;DHT22;3168;51.684;6.954;2023-06-22T02:36:48;19.10;1.00
6270;DHT22;3168;51.684;6.954;2023-06-22T02:39:20;19.10;1.00
6270;DHT22;3168;51.684;6.954;2023-06-22T02:41:45;19.20;1.00
6270;DHT22;3168;51.684;6.954;2023-06-22T02:44:11;19.20;1.00
6270;DHT22;3168;51.684;6.954;2023-06-22T02:46:37;19.20;1.00
6270;DHT22;3168;51.684;6.954;2023-06-22T02:49:03;19.20;1.00
6270;DHT22;3168;51.684;6.954;2023-06-22T02:51:30;19.20;1.00
6270;DHT22;3168;51.684;6.954;2023-06-22T02:53:55;19.20;1.00
6270;DHT22;3168;51.684;6.954;2023-06-22T02:56:21;19.10;1.00
6270;DHT22;3168;51.684;6.954;2023-06-22T02:58:47;19.20;1.00
6270;DHT22;3168;51.684;6.954;2023-06-22T03:01:12;19.10;1.00
6270;DHT22;3168;51.684;6.954;2023-06-22T03:03:38;19.10;1.00
6270;DHT22;3168;51.684;6.954;2023-06-22T03:06:04;19.00;1.00
6270;DHT22;3168;51.684;6.954;2023-06-22T03:08:30;18.90;1.00
6270;DHT22;3168;51.684;6.954;2023-06-22T03:10:56;18.90;1.00
6270;DHT22;3168;51.684;6.954;2023-06-22T03:13:21;18.90;1.00
6270;DHT22;3168;51.684;6.954;2023-06-22T03:15:47;19.00;1.00
6270;DHT22;3168;51.684;6.954;2023-06-22T03:18:13;19.10;1.00
6270;DHT22;3168;51.684;6.954;2023-06-22T03:20:39;19.10;1.00
6270;DHT22;3168;51.684;6.954;2023-06-22T03:23:05;19.10;1.00
6270;DHT22;3168;51.684;6.954;2023-06-22T03:25:30;19.00;1.00
6270;DHT22;3168;51.684;6.954;2023-06-22T03:27:56;18.90;1.00
6270;DHT22;3168;51.684;6.954;2023-06-22T03:30:22;18.70;1.00
6270;DHT22;3168;51.684;6.954;2023-06-22T03:32:48;18.60;1.00
6270;DHT22;3168;51.684;6.954;2023-06-22T03:35:14;18.60;1.00
6270;DHT22;3168;51.684;6.954;2023-06-22T03:37:40;18.60;1.00
6270;DHT22;3168;51.684;6.954;2023-06-22T03:40:06;18.50;1.00
6270;DHT22;3168;51.684;6.954;2023-06-22T03:42:33;18.60;1.00
6270;DHT22;3168;51.684;6.954;2023-06-22T03:44:58;18.70;1.00
6270;DHT22;3168;51.684;6.954;2023-06-22T03:47:23;18.70;1.00
6270;DHT22;3168;51.684;6.954;2023-06-22T03:49:49;18.70;1.00
6270;DHT22;3168;51.684;6.954;2023-06-22T03:52:15;18.60;1.00
6270;DHT22;3168;51.684;6.954;2023-06-22T03:54:41;18.50;1.00
6270;DHT22;3168;51.684;6.954;2023-06-22T03:57:07;18.40;1.00
6270;DHT22;3168;51.684;6.954;2023-06-22T03:59:32;18.40;2.20
6270;DHT22;3168;51.684;6.954;2023-06-22T04:01:58;18.40;2.40
6270;DHT22;3168;51.684;6.954;2023-06-22T04:04:24;18.30;3.30
6270;DHT22;3168;51.684;6.954;2023-06-22T04:06:50;18.20;6.60
6270;DHT22;3168;51.684;6.954;2023-06-22T04:09:16;18.20;9.00
6270;DHT22;3168;51.684;6.954;2023-06-22T04:11:41;18.30;9.70
6270;DHT22;3168;51.684;6.954;2023-06-22T04:14:07;18.30;9.10
6270;DHT22;3168;51.684;6.954;2023-06-22T04:16:33;18.20;10.50
6270;DHT22;3168;51.684;6.954;2023-06-22T04:18:59;18.20;10.80
6270;DHT22;3168;51.684;6.954;2023-06-22T04:21:25;18.20;10.90
6270;DHT22;3168;51.684;6.954;2023-06-22T04:23:51;18.30;10.90
6270;DHT22;3168;51.684;6.954;2023-06-22T04:26:17;18.20;10.80
6270;DHT22;3168;51.684;6.954;2023-06-22T04:28:43;18.30;11.30
6270;DHT22;3168;51.684;6.954;2023-06-22T04:31:09;18.30;11.80
6270;DHT22;3168;51.684;6.954;2023-06-22T04:33:36;18.40;10.90
6270;DHT22;3168;51.684;6.954;2023-06-22T04:36:01;18.40;10.80
6270;DHT22;3168;51.684;6.954;2023-06-22T04:38:28;18.70;6.90
6270;DHT22;3168;51.684;6.954;2023-06-22T04:40:53;18.80;1.00
6270;DHT22;3168;51.684;6.954;2023-06-22T04:43:19;19.00;1.00
6270;DHT22;3168;51.684;6.954;2023-06-22T04:45:45;19.00;1.00
6270;DHT22;3168;51.684;6.954;2023-06-22T04:48:11;19.10;1.00
6270;DHT22;3168;51.684;6.954;2023-06-22T04:50:36;19.30;1.00
6270;DHT22;3168;51.684;6.954;2023-06-22T04:53:03;19.40;1.00
6270;DHT22;3168;51.684;6.954;2023-06-22T04:55:29;19.40;1.00
6270;DHT22;3168;51.684;6.954;2023-06-22T04:57:55;19.50;1.00
6270;DHT22;3168;51.684;6.954;2023-06-22T05:00:20;19.30;1.00
6270;DHT22;3168;51.684;6.954;2023-06-22T05:02:47;19.50;1.00
6270;DHT22;3168;51.684;6.954;2023-06-22T05:05:13;19.50;1.00
6270;DHT22;3168;51.684;6.954;2023-06-22T05:07:42;19.50;1.00
6270;DHT22;3168;51.684;6.954;2023-06-22T05:10:07;19.40;1.00
6270;DHT22;3168;51.684;6.954;2023-06-22T05:12:33;19.30;1.00
6270;DHT22;3168;51.684;6.954;2023-06-22T05:14:59;19.30;1.00
6270;DHT22;3168;51.684;6.954;2023-06-22T05:17:25;19.50;1.00
6270;DHT22;3168;51.684;6.954;2023-06-22T05:19:51;19.80;1.00
6270;DHT22;3168;51.684;6.954;2023-06-22T05:22:16;20.00;1.00
6270;DHT22;3168;51.684;6.954;2023-06-22T05:24:42;19.80;1.00
6270;DHT22;3168;51.684;6.954;2023-06-22T05:27:08;19.70;1.00
6270;DHT22;3168;51.684;6.954;2023-06-22T05:29:34;19.70;1.00
6270;DHT22;3168;51.684;6.954;2023-06-22T05:32:00;19.70;1.00
6270;DHT22;3168;51.684;6.954;2023-06-22T05:34:26;19.70;1.00
6270;DHT22;3168;51.684;6.954;2023-06-22T05:36:51;19.70;1.00
6270;DHT22;3168;51.684;6.954;2023-06-22T05:39:17;19.60;1.00
6270;DHT22;3168;51.684;6.954;2023-06-22T05:41:44;19.70;1.00
6270;DHT22;3168;51.684;6.954;2023-06-22T05:44:09;19.60;1.00
6270;DHT22;3168;51.684;6.954;2023-06-22T05:46:35;19.80;1.00
6270;DHT22;3168;51.684;6.954;2023-06-22T05:49:01;19.80;1.00
6270;DHT22;3168;51.684;6.954;2023-06-22T05:51:27;19.80;1.00
6270;DHT22;3168;51.684;6.954;2023-06-22T05:53:53;19.90;1.00
6270;DHT22;3168;51.684;6.954;2023-06-22T05:56:19;19.90;1.00
6270;DHT22;3168;51.684;6.954;2023-06-22T05:58:45;20.00;1.00
6270;DHT22;3168;51.684;6.954;2023-06-22T06:01:11;20.40;1.00
6270;DHT22;3168;51.684;6.954;2023-06-22T06:03:37;20.40;1.00
6270;DHT22;3168;51.684;6.954;2023-06-22T06:06:10;20.40;1.00
6270;DHT22;3168;51.684;6.954;2023-06-22T06:08:35;20.50;1.00
6270;DHT22;3168;51.684;6.954;2023-06-22T06:11:02;20.60;1.00
6270;DHT22;3168;51.684;6.954;2023-06-22T06:13:28;20.50;1.00
6270;DHT22;3168;51.684;6.954;2023-06-22T06:15:54;20.60;1.00
6270;DHT22;3168;51.684;6.954;2023-06-22T06:18:20;20.60;1.00
6270;DHT22;3168;51.684;6.954;2023-06-22T06:20:46;20.60;1.00
6270;DHT22;3168;51.684;6.954;2023-06-22T06:23:12;20.60;1.00
6270;DHT22;3168;51.684;6.954;2023-06-22T06:25:38;20.70;1.00
6270;DHT22;3168;51.684;6.954;2023-06-22T06:28:04;20.60;1.00
6270;DHT22;3168;51.684;6.954;2023-06-22T06:30:30;20.70;1.00
6270;DHT22;3168;51.684;6.954;2023-06-22T06:32:55;20.80;1.00
6270;DHT22;3168;51.684;6.954;2023-06-22T06:35:21;20.80;1.00
6270;DHT22;3168;51.684;6.954;2023-06-22T06:37:48;20.90;1.00
6270;DHT22;3168;51.684;6.954;2023-06-22T06:40:13;21.00;1.00
6270;DHT22;3168;51.684;6.954;2023-06-22T06:42:39;21.00;1.00
6270;DHT22;3168;51.684;6.954;2023-06-22T06:45:05;21.00;1.00
6270;DHT22;3168;51.684;6.954;2023-06-22T06:47:31;21.10;1.00
6270;DHT22;3168;51.684;6.954;2023-06-22T06:49:57;21.20;1.00
6270;DHT22;3168;51.684;6.954;2023-06-22T06:52:23;21.10;1.00
6270;DHT22;3168;51.684;6.954;2023-06-22T06:54:49;20.90;1.00
6270;DHT22;3168;51.684;6.954;2023-06-22T06:57:14;20.90;1.00
6270;DHT22;3168;51.684;6.954;2023-06-22T06:59:41;20.80;1.00
6270;DHT22;3168;51.684;6.954;2023-06-22T07:02:07;20.80;1.00
6270;DHT22;3168;51.684;6.954;2023-06-22T07:04:33;20.90;1.00
6270;DHT22;3168;51.684;6.954;2023-06-22T07:07:01;21.00;1.00
6270;DHT22;3168;51.684;6.954;2023-06-22T07:09:26;21.00;1.00
6270;DHT22;3168;51.684;6.954;2023-06-22T07:11:52;20.80;1.00
6270;DHT22;3168;51.684;6.954;2023-06-22T07:14:17;20.70;1.00
6270;DHT22;3168;51.684;6.954;2023-06-22T07:16:43;20.80;1.00
6270;DHT22;3168;51.684;6.954;2023-06-22T07:19:11;21.10;1.00
6270;DHT22;3168;51.684;6.954;2023-06-22T07:21:35;21.20;1.00
6270;DHT22;3168;51.684;6.954;2023-06-22T07:24:01;21.10;1.00
6270;DHT22;3168;51.684;6.954;2023-06-22T07:26:26;20.90;1.00
6270;DHT22;3168;51.684;6.954;2023-06-22T07:28:52;21.00;1.00
6270;DHT22;3168;51.684;6.954;2023-06-22T07:31:18;21.00;1.00
6270;DHT22;3168;51.684;6.954;2023-06-22T07:33:44;21.10;1.00
6270;DHT22;3168;51.684;6.954;2023-06-22T07:36:10;21.00;1.00
6270;DHT22;3168;51.684;6.954;2023-06-22T07:38:36;21.00;1.00
6270;DHT22;3168;51.684;6.954;2023-06-22T07:41:02;21.10;1.00
6270;DHT22;3168;51.684;6.954;2023-06-22T07:43:27;21.10;1.00
6270;DHT22;3168;51.684;6.954;2023-06-22T07:45:53;21.10;1.00
6270;DHT22;3168;51.684;6.954;2023-06-22T07:48:20;21.20;1.00
6270;DHT22;3168;51.684;6.954;2023-06-22T07:50:47;21.20;1.00
6270;DHT22;3168;51.684;6.954;2023-06-22T07:53:13;21.00;1.00
6270;DHT22;3168;51.684;6.954;2023-06-22T07:55:39;21.00;1.00
6270;DHT22;3168;51.684;6.954;2023-06-22T07:58:06;21.10;1.00
6270;DHT22;3168;51.684;6.954;2023-06-22T08:00:33;21.30;1.00
6270;DHT22;3168;51.684;6.954;2023-06-22T08:02:58;21.30;1.00
6270;DHT22;3168;51.684;6.954;2023-06-22T08:05:24;21.50;1.00
6270;DHT22;3168;51.684;6.954;2023-06-22T08:07:49;21.10;1.00
6270;DHT22;3168;51.684;6.954;2023-06-22T08:10:15;21.10;1.00
6270;DHT22;3168;51.684;6.954;2023-06-22T08:12:41;21.20;1.00
6270;DHT22;3168;51.684;6.954;2023-06-22T08:15:07;21.30;1.00
6270;DHT22;3168;51.684;6.954;2023-06-22T08:17:33;21.50;1.00
6270;DHT22;3168;51.684;6.954;2023-06-22T08:19:59;21.90;1.00
6270;DHT22;3168;51.684;6.954;2023-06-22T08:22:25;21.90;1.00
6270;DHT22;3168;51.684;6.954;2023-06-22T08:24:51;21.90;1.00
6270;DHT22;3168;51.684;6.954;2023-06-22T08:27:17;22.00;1.00
6270;DHT22;3168;51.684;6.954;2023-06-22T08:29:42;22.10;1.00
6270;DHT22;3168;51.684;6.954;2023-06-22T08:32:09;22.20;1.00
6270;DHT22;3168;51.684;6.954;2023-06-22T08:34:35;22.20;1.00
6270;DHT22;3168;51.684;6.954;2023-06-22T08:37:01;22.30;1.00
6270;DHT22;3168;51.684;6.954;2023-06-22T08:39:26;22.40;1.00
6270;DHT22;3168;51.684;6.954;2023-06-22T08:41:53;22.50;1.00
6270;DHT22;3168;51.684;6.954;2023-06-22T08:44:19;22.50;1.00
6270;DHT22;3168;51.684;6.954;2023-06-22T08:46:45;22.60;1.00
6270;DHT22;3168;51.684;6.954;2023-06-22T08:49:10;22.80;1.00
6270;DHT22;3168;51.684;6.954;2023-06-22T08:51:36;23.00;1.00
6270;DHT22;3168;51.684;6.954;2023-06-22T08:54:02;22.90;1.00
6270;DHT22;3168;51.684;6.954;2023-06-22T08:56:28;22.90;1.00
6270;DHT22;3168;51.684;6.954;2023-06-22T08:58:54;22.80;1.00
6270;DHT22;3168;51.684;6.954;2023-06-22T09:01:20;23.00;1.00
6270;DHT22;3168;51.684;6.954;2023-06-22T09:03:45;23.50;1.00
6270;DHT22;3168;51.684;6.954;2023-06-22T09:06:11;23.90;1.00
6270;DHT22;3168;51.684;6.954;2023-06-22T09:08:37;23.90;1.00
6270;DHT22;3168;51.684;6.954;2023-06-22T09:11:03;24.20;1.00
6270;DHT22;3168;51.684;6.954;2023-06-22T09:13:30;23.50;1.00
6270;DHT22;3168;51.684;6.954;2023-06-22T09:15:55;23.40;1.00
6270;DHT22;3168;51.684;6.954;2023-06-22T09:18:21;23.90;1.00
6270;DHT22;3168;51.684;6.954;2023-06-22T09:20:47;24.20;1.00
6270;DHT22;3168;51.684;6.954;2023-06-22T09:23:13;24.30;1.00
6270;DHT22;3168;51.684;6.954;2023-06-22T09:25:38;24.10;1.00
6270;DHT22;3168;51.684;6.954;2023-06-22T09:28:04;24.50;1.00
6270;DHT22;3168;51.684;6.954;2023-06-22T09:30:30;24.70;1.00
6270;DHT22;3168;51.684;6.954;2023-06-22T09:32:56;24.80;1.00
6270;DHT22;3168;51.684;6.954;2023-06-22T09:35:22;24.90;1.00
6270;DHT22;3168;51.684;6.954;2023-06-22T09:37:47;25.00;1.00
6270;DHT22;3168;51.684;6.954;2023-06-22T09:40:14;25.10;1.00
6270;DHT22;3168;51.684;6.954;2023-06-22T09:42:41;25.00;1.00
6270;DHT22;3168;51.684;6.954;2023-06-22T09:45:06;25.10;1.00
6270;DHT22;3168;51.684;6.954;2023-06-22T09:47:32;25.20;1.00
6270;DHT22;3168;51.684;6.954;2023-06-22T09:49:58;25.50;1.00
6270;DHT22;3168;51.684;6.954;2023-06-22T09:52:24;25.10;1.00
6270;DHT22;3168;51.684;6.954;2023-06-22T09:54:50;25.40;1.00
6270;DHT22;3168;51.684;6.954;2023-06-22T09:57:16;25.40;1.00
6270;DHT22;3168;51.684;6.954;2023-06-22T09:59:42;25.20;1.00
6270;DHT22;3168;51.684;6.954;2023-06-22T10:02:08;25.50;1.00
6270;DHT22;3168;51.684;6.954;2023-06-22T10:04:34;25.30;1.00
6270;DHT22;3168;51.684;6.954;2023-06-22T10:06:59;25.20;1.00
6270;DHT22;3168;51.684;6.954;2023-06-22T10:09:25;24.70;1.00
6270;DHT22;3168;51.684;6.954;2023-06-22T10:11:51;24.50;1.00
6270;DHT22;3168;51.684;6.954;2023-06-22T10:14:17;24.70;1.00
6270;DHT22;3168;51.684;6.954;2023-06-22T10:16:42;24.80;1.00
6270;DHT22;3168;51.684;6.954;2023-06-22T10:19:08;24.80;1.00
6270;DHT22;3168;51.684;6.954;2023-06-22T10:21:34;24.90;1.00
6270;DHT22;3168;51.684;6.954;2023-06-22T10:24:00;24.90;1.00
6270;DHT22;3168;51.684;6.954;2023-06-22T10:26:26;24.90;1.00
6270;DHT22;3168;51.684;6.954;2023-06-22T10:28:52;24.90;1.00
6270;DHT22;3168;51.684;6.954;2023-06-22T10:31:17;24.80;1.00
6270;DHT22;3168;51.684;6.954;2023-06-22T10:33:43;24.70;1.00
6270;DHT22;3168;51.684;6.954;2023-06-22T10:36:10;24.60;1.00
6270;DHT22;3168;51.684;6.954;2023-06-22T10:38:35;24.80;1.00
6270;DHT22;3168;51.684;6.954;2023-06-22T10:41:01;25.00;1.00
6270;DHT22;3168;51.684;6.954;2023-06-22T10:43:27;25.20;1.00
6270;DHT22;3168;51.684;6.954;2023-06-22T10:45:52;25.50;1.00
6270;DHT22;3168;51.684;6.954;2023-06-22T10:48:18;26.00;1.00
6270;DHT22;3168;51.684;6.954;2023-06-22T10:50:44;26.20;1.00
6270;DHT22;3168;51.684;6.954;2023-06-22T10:53:10;26.70;1.00
6270;DHT22;3168;51.684;6.954;2023-06-22T10:55:36;26.80;1.00
6270;DHT22;3168;51.684;6.954;2023-06-22T10:58:02;26.80;1.00
6270;DHT22;3168;51.684;6.954;2023-06-22T11:00:27;26.70;1.00
6270;DHT22;3168;51.684;6.954;2023-06-22T11:02:53;26.80;1.00
6270;DHT22;3168;51.684;6.954;2023-06-22T11:05:19;27.00;1.00
6270;DHT22;3168;51.684;6.954;2023-06-22T11:07:45;26.80;1.00
6270;DHT22;3168;51.684;6.954;2023-06-22T11:10:11;26.80;1.00
6270;DHT22;3168;51.684;6.954;2023-06-22T11:12:36;27.00;1.00
6270;DHT22;3168;51.684;6.954;2023-06-22T11:15:03;27.10;1.00
6270;DHT22;3168;51.684;6.954;2023-06-22T11:17:29;27.10;1.00
6270;DHT22;3168;51.684;6.954;2023-06-22T11:19:56;26.90;1.00
6270;DHT22;3168;51.684;6.954;2023-06-22T11:22:21;26.70;1.00
6270;DHT22;3168;51.684;6.954;2023-06-22T11:24:47;26.50;1.00
6270;DHT22;3168;51.684;6.954;2023-06-22T11:27:13;26.30;1.00
6270;DHT22;3168;51.684;6.954;2023-06-22T11:29:39;26.30;1.00
6270;DHT22;3168;51.684;6.954;2023-06-22T11:32:06;26.10;1.00
6270;DHT22;3168;51.684;6.954;2023-06-22T11:34:31;26.10;1.00
6270;DHT22;3168;51.684;6.954;2023-06-22T11:36:57;25.80;1.00
6270;DHT22;3168;51.684;6.954;2023-06-22T11:39:23;26.00;1.00
6270;DHT22;3168;51.684;6.954;2023-06-22T11:41:49;25.90;1.00
6270;DHT22;3168;51.684;6.954;2023-06-22T11:44:15;25.80;1.00
6270;DHT22;3168;51.684;6.954;2023-06-22T11:46:40;25.80;1.00
6270;DHT22;3168;51.684;6.954;2023-06-22T11:49:06;25.70;1.00
6270;DHT22;3168;51.684;6.954;2023-06-22T11:51:32;25.50;1.00
6270;DHT22;3168;51.684;6.954;2023-06-22T11:53:58;25.30;1.00
6270;DHT22;3168;51.684;6.954;2023-06-22T11:56:24;25.40;1.00
6270;DHT22;3168;51.684;6.954;2023-06-22T11:58:49;25.30;1.00
6270;DHT22;3168;51.684;6.954;2023-06-22T12:01:15;25.20;1.00
6270;DHT22;3168;51.684;6.954;2023-06-22T12:03:41;25.10;1.00
6270;DHT22;3168;51.684;6.954;2023-06-22T12:06:07;24.80;1.00
6270;DHT22;3168;51.684;6.954;2023-06-22T12:08:33;24.70;1.00
6270;DHT22;3168;51.684;6.954;2023-06-22T12:10:58;24.40;1.00
6270;DHT22;3168;51.684;6.954;2023-06-22T12:13:24;24.30;1.00
6270;DHT22;3168;51.684;6.954;2023-06-22T12:15:50;24.00;1.00
6270;DHT22;3168;51.684;6.954;2023-06-22T12:18:16;23.80;1.00
6270;DHT22;3168;51.684;6.954;2023-06-22T12:20:42;23.60;1.00
6270;DHT22;3168;51.684;6.954;2023-06-22T12:23:07;23.50;1.00
6270;DHT22;3168;51.684;6.954;2023-06-22T12:25:33;23.20;1.00
6270;DHT22;3168;51.684;6.954;2023-06-22T12:27:59;23.00;1.00
6270;DHT22;3168;51.684;6.954;2023-06-22T12:30:25;22.70;1.00
6270;DHT22;3168;51.684;6.954;2023-06-22T12:32:51;22.50;1.00
6270;DHT22;3168;51.684;6.954;2023-06-22T12:35:16;22.20;9.70
6270;DHT22;3168;51.684;6.954;2023-06-22T12:37:42;22.00;19.30
6270;DHT22;3168;51.684;6.954;2023-06-22T12:40:09;21.90;39.00
6270;DHT22;3168;51.684;6.954;2023-06-22T12:42:35;21.80;41.60
6270;DHT22;3168;51.684;6.954;2023-06-22T12:45:00;21.80;53.20
6270;DHT22;3168;51.684;6.954;2023-06-22T12:47:26;21.70;56.70
6270;DHT22;3168;51.684;6.954;2023-06-22T12:49:52;21.80;67.60
6270;DHT22;3168;51.684;6.954;2023-06-22T12:52:18;21.70;73.10
6270;DHT22;3168;51.684;6.954;2023-06-22T12:54:44;21.40;71.80
6270;DHT22;3168;51.684;6.954;2023-06-22T12:57:09;21.50;85.60
6270;DHT22;3168;51.684;6.954;2023-06-22T12:59:36;21.60;90.70
6270;DHT22;3168;51.684;6.954;2023-06-22T13:02:02;21.60;90.80
6270;DHT22;3168;51.684;6.954;2023-06-22T13:04:27;21.80;92.60
6270;DHT22;3168;51.684;6.954;2023-06-22T13:06:53;21.80;94.10
6270;DHT22;3168;51.684;6.954;2023-06-22T13:09:19;21.90;96.00
6270;DHT22;3168;51.684;6.954;2023-06-22T13:11:45;22.10;97.10
6270;DHT22;3168;51.684;6.954;2023-06-22T13:14:11;22.00;86.20
6270;DHT22;3168;51.684;6.954;2023-06-22T13:16:37;22.10;81.90
6270;DHT22;3168;51.684;6.954;2023-06-22T13:19:03;22.10;81.70
6270;DHT22;3168;51.684;6.954;2023-06-22T13:21:30;22.30;82.20
6270;DHT22;3168;51.684;6.954;2023-06-22T13:23:55;22.30;59.60
6270;DHT22;3168;51.684;6.954;2023-06-22T13:26:21;22.50;72.00
6270;DHT22;3168;51.684;6.954;2023-06-22T13:28:46;22.40;59.80
6270;DHT22;3168;51.684;6.954;2023-06-22T13:31:12;22.50;59.00
6270;DHT22;3168;51.684;6.954;2023-06-22T13:33:38;22.40;40.10
6270;DHT22;3168;51.684;6.954;2023-06-22T13:36:05;22.40;40.50
6270;DHT22;3168;51.684;6.954;2023-06-22T13:38:30;22.40;40.00
6270;DHT22;3168;51.684;6.954;2023-06-22T13:40:56;22.40;40.40
6270;DHT22;3168;51.684;6.954;2023-06-22T13:43:22;22.50;40.00
6270;DHT22;3168;51.684;6.954;2023-06-22T13:45:48;22.40;40.10
6270;DHT22;3168;51.684;6.954;2023-06-22T13:48:14;22.30;42.10
6270;DHT22;3168;51.684;6.954;2023-06-22T13:50:40;22.30;32.90
6270;DHT22;3168;51.684;6.954;2023-06-22T13:53:05;22.30;34.50
6270;DHT22;3168;51.684;6.954;2023-06-22T13:55:31;22.50;37.30
6270;DHT22;3168;51.684;6.954;2023-06-22T13:57:57;22.50;34.10
6270;DHT22;3168;51.684;6.954;2023-06-22T14:00:23;22.60;39.00
6270;DHT22;3168;51.684;6.954;2023-06-22T14:02:49;22.70;34.70
6270;DHT22;3168;51.684;6.954;2023-06-22T14:05:15;22.90;22.10
6270;DHT22;3168;51.684;6.954;2023-06-22T14:07:40;22.80;22.00
6270;DHT22;3168;51.684;6.954;2023-06-22T14:10:07;22.80;13.30
6270;DHT22;3168;51.684;6.954;2023-06-22T14:12:33;23.10;18.20
6270;DHT22;3168;51.684;6.954;2023-06-22T14:14:59;23.00;22.20
6270;DHT22;3168;51.684;6.954;2023-06-22T14:17:24;22.80;27.50
6270;DHT22;3168;51.684;6.954;2023-06-22T14:19:50;22.60;18.90
6270;DHT22;3168;51.684;6.954;2023-06-22T14:22:16;22.50;25.80
6270;DHT22;3168;51.684;6.954;2023-06-22T14:24:42;22.50;35.90
6270;DHT22;3168;51.684;6.954;2023-06-22T14:27:07;22.90;22.20
6270;DHT22;3168;51.684;6.954;2023-06-22T14:29:33;23.10;8.00
6270;DHT22;3168;51.684;6.954;2023-06-22T14:31:59;23.30;1.40
6270;DHT22;3168;51.684;6.954;2023-06-22T14:34:25;23.70;1.00
6270;DHT22;3168;51.684;6.954;2023-06-22T14:36:51;23.60;1.00
6270;DHT22;3168;51.684;6.954;2023-06-22T14:39:17;23.70;1.00
6270;DHT22;3168;51.684;6.954;2023-06-22T14:41:42;23.70;1.00
6270;DHT22;3168;51.684;6.954;2023-06-22T14:44:08;23.70;1.00
6270;DHT22;3168;51.684;6.954;2023-06-22T14:46:34;23.50;1.00
6270;DHT22;3168;51.684;6.954;2023-06-22T14:49:00;23.20;1.00
6270;DHT22;3168;51.684;6.954;2023-06-22T14:51:26;23.20;1.00
6270;DHT22;3168;51.684;6.954;2023-06-22T14:53:51;23.30;2.00
6270;DHT22;3168;51.684;6.954;2023-06-22T14:56:17;23.20;5.70
6270;DHT22;3168;51.684;6.954;2023-06-22T14:58:43;22.70;13.80
6270;DHT22;3168;51.684;6.954;2023-06-22T15:01:11;22.30;25.70
6270;DHT22;3168;51.684;6.954;2023-06-22T15:03:37;22.30;31.20
6270;DHT22;3168;51.684;6.954;2023-06-22T15:06:03;22.30;31.30
6270;DHT22;3168;51.684;6.954;2023-06-22T15:08:30;22.30;34.60
6270;DHT22;3168;51.684;6.954;2023-06-22T15:10:57;22.40;32.10
6270;DHT22;3168;51.684;6.954;2023-06-22T15:13:21;22.40;30.00
6270;DHT22;3168;51.684;6.954;2023-06-22T15:15:47;22.40;26.00
6270;DHT22;3168;51.684;6.954;2023-06-22T15:18:14;22.40;21.60
6270;DHT22;3168;51.684;6.954;2023-06-22T15:20:40;22.40;24.40
6270;DHT22;3168;51.684;6.954;2023-06-22T15:23:06;22.40;21.90
6270;DHT22;3168;51.684;6.954;2023-06-22T15:25:31;22.40;27.20
6270;DHT22;3168;51.684;6.954;2023-06-22T15:27:57;22.30;21.70
6270;DHT22;3168;51.684;6.954;2023-06-22T15:30:23;22.30;25.70
6270;DHT22;3168;51.684;6.954;2023-06-22T15:32:49;22.40;21.20
6270;DHT22;3168;51.684;6.954;2023-06-22T15:35:15;22.50;10.40
6270;DHT22;3168;51.684;6.954;2023-06-22T15:37:40;22.40;13.60
6270;DHT22;3168;51.684;6.954;2023-06-22T15:40:07;22.30;13.10
6270;DHT22;3168;51.684;6.954;2023-06-22T15:42:33;22.40;9.90
6270;DHT22;3168;51.684;6.954;2023-06-22T15:44:59;22.40;9.80
6270;DHT22;3168;51.684;6.954;2023-06-22T15:47:24;22.50;10.20
6270;DHT22;3168;51.684;6.954;2023-06-22T15:49:50;22.40;6.60
6270;DHT22;3168;51.684;6.954;2023-06-22T15:52:17;22.30;12.00
6270;DHT22;3168;51.684;6.954;2023-06-22T15:54:42;22.30;13.60
6270;DHT22;3168;51.684;6.954;2023-06-22T15:57:08;22.50;9.50
6270;DHT22;3168;51.684;6.954;2023-06-22T15:59:34;22.50;5.20
6270;DHT22;3168;51.684;6.954;2023-06-22T16:01:59;22.40;9.50
6270;DHT22;3168;51.684;6.954;2023-06-22T16:04:25;22.20;11.20
6270;DHT22;3168;51.684;6.954;2023-06-22T16:06:51;22.10;9.20
6270;DHT22;3168;51.684;6.954;2023-06-22T16:09:17;22.30;14.00